Terminal Aerodrome Forecast
Issued by NWS Boise, ID

Home | Current Version | Previous Version | Text Only | Print | Product List | Glossary On
Versions: 1 2 3 4 5 6 7 8 9 10 11 12 13 14 15 16 17 18
000
FTUS45 KBOI 232344
TAFBOI
TAF
KBOI 232344Z 2400/2424 30020G30KT P6SM VCSH OVC040
      TEMPO 2400/2402 6SM -SHSN BR
     FM240200 30014KT P6SM OVC060
     FM241800 30010KT P6SM SCT100=

USA.gov is the U.S. government's official web portal to all federal, state and local government web resources and services.